Aviation Digital Data Service (ADDS)

Output produced by TAFs form (1350 UTC 27 February 2017)
found at http://www.aviationweather.gov/adds/tafs/
 
KABE 271124Z 2712/2812 23005KT P6SM SCT150 
     FM271700 23010KT P6SM OVC100 
     FM272300 20003KT P6SM OVC070